sensor_id;sensor_type;location;lat;lon;timestamp;temperature;humidity
17948;DHT22;9099;47.958;11.366;2023-04-03T00:01:36;4.00;99.90
17948;DHT22;9099;47.958;11.366;2023-04-03T00:04:03;4.00;99.90
17948;DHT22;9099;47.958;11.366;2023-04-03T00:06:32;4.00;99.90
17948;DHT22;9099;47.958;11.366;2023-04-03T00:08:59;4.00;99.90
17948;DHT22;9099;47.958;11.366;2023-04-03T00:11:26;3.90;99.90
17948;DHT22;9099;47.958;11.366;2023-04-03T00:13:53;3.90;99.90
17948;DHT22;9099;47.958;11.366;2023-04-03T00:16:20;4.00;99.90
17948;DHT22;9099;47.958;11.366;2023-04-03T00:18:46;3.90;99.90
17948;DHT22;9099;47.958;11.366;2023-04-03T00:21:14;3.90;99.90
17948;DHT22;9099;47.958;11.366;2023-04-03T00:23:42;4.00;99.90
17948;DHT22;9099;47.958;11.366;2023-04-03T00:26:09;3.90;99.90
17948;DHT22;9099;47.958;11.366;2023-04-03T00:28:36;4.00;99.90
17948;DHT22;9099;47.958;11.366;2023-04-03T00:31:03;3.90;99.90
17948;DHT22;9099;47.958;11.366;2023-04-03T00:33:30;3.90;99.90
17948;DHT22;9099;47.958;11.366;2023-04-03T00:35:57;3.90;99.90
17948;DHT22;9099;47.958;11.366;2023-04-03T00:38:24;3.90;99.90
17948;DHT22;9099;47.958;11.366;2023-04-03T00:40:52;3.90;99.90
17948;DHT22;9099;47.958;11.366;2023-04-03T00:43:21;3.90;99.90
17948;DHT22;9099;47.958;11.366;2023-04-03T00:45:49;3.90;99.90
17948;DHT22;9099;47.958;11.366;2023-04-03T00:48:19;3.90;99.90
17948;DHT22;9099;47.958;11.366;2023-04-03T00:50:47;3.90;99.90
17948;DHT22;9099;47.958;11.366;2023-04-03T00:53:18;3.90;99.90
17948;DHT22;9099;47.958;11.366;2023-04-03T00:55:47;3.90;99.90
17948;DHT22;9099;47.958;11.366;2023-04-03T00:58:17;3.90;99.90
17948;DHT22;9099;47.958;11.366;2023-04-03T01:00:49;3.90;99.90
17948;DHT22;9099;47.958;11.366;2023-04-03T01:03:21;3.80;99.90
17948;DHT22;9099;47.958;11.366;2023-04-03T01:05:48;3.80;99.90
17948;DHT22;9099;47.958;11.366;2023-04-03T01:08:15;3.80;99.90
17948;DHT22;9099;47.958;11.366;2023-04-03T01:10:43;3.80;99.90
17948;DHT22;9099;47.958;11.366;2023-04-03T01:13:21;3.80;99.90
17948;DHT22;9099;47.958;11.366;2023-04-03T01:15:48;3.80;99.90
17948;DHT22;9099;47.958;11.366;2023-04-03T01:18:15;3.80;99.90
17948;DHT22;9099;47.958;11.366;2023-04-03T01:21:15;3.80;99.90
17948;DHT22;9099;47.958;11.366;2023-04-03T01:24:00;3.80;99.90
17948;DHT22;9099;47.958;11.366;2023-04-03T01:26:30;3.90;99.90
17948;DHT22;9099;47.958;11.366;2023-04-03T01:28:58;3.90;99.90
17948;DHT22;9099;47.958;11.366;2023-04-03T01:31:28;3.90;99.90
17948;DHT22;9099;47.958;11.366;2023-04-03T01:33:59;3.90;99.90
17948;DHT22;9099;47.958;11.366;2023-04-03T01:36:28;3.90;99.90
17948;DHT22;9099;47.958;11.366;2023-04-03T01:38:58;3.90;99.90
17948;DHT22;9099;47.958;11.366;2023-04-03T01:41:26;3.90;99.90
17948;DHT22;9099;47.958;11.366;2023-04-03T01:43:53;3.90;99.90
17948;DHT22;9099;47.958;11.366;2023-04-03T01:46:20;3.90;99.90
17948;DHT22;9099;47.958;11.366;2023-04-03T01:48:48;3.90;99.90
17948;DHT22;9099;47.958;11.366;2023-04-03T01:51:16;3.90;99.90
17948;DHT22;9099;47.958;11.366;2023-04-03T01:53:43;3.90;99.90
17948;DHT22;9099;47.958;11.366;2023-04-03T01:56:10;3.90;99.90
17948;DHT22;9099;47.958;11.366;2023-04-03T01:58:37;3.80;99.90
17948;DHT22;9099;47.958;11.366;2023-04-03T02:01:04;3.70;99.90
17948;DHT22;9099;47.958;11.366;2023-04-03T02:03:31;3.60;99.90
17948;DHT22;9099;47.958;11.366;2023-04-03T02:05:58;3.50;99.90
17948;DHT22;9099;47.958;11.366;2023-04-03T02:08:26;3.50;99.90
17948;DHT22;9099;47.958;11.366;2023-04-03T02:10:53;3.50;99.90
17948;DHT22;9099;47.958;11.366;2023-04-03T02:13:20;3.30;99.90
17948;DHT22;9099;47.958;11.366;2023-04-03T02:15:47;3.10;99.90
17948;DHT22;9099;47.958;11.366;2023-04-03T02:18:14;3.10;99.90
17948;DHT22;9099;47.958;11.366;2023-04-03T02:20:41;3.00;99.90
17948;DHT22;9099;47.958;11.366;2023-04-03T02:23:08;3.00;99.90
17948;DHT22;9099;47.958;11.366;2023-04-03T02:25:36;2.90;99.90
17948;DHT22;9099;47.958;11.366;2023-04-03T02:28:03;2.80;99.90
17948;DHT22;9099;47.958;11.366;2023-04-03T02:30:30;2.80;99.90
17948;DHT22;9099;47.958;11.366;2023-04-03T02:32:56;2.70;99.90
17948;DHT22;9099;47.958;11.366;2023-04-03T02:35:23;2.70;99.90
17948;DHT22;9099;47.958;11.366;2023-04-03T02:37:50;2.70;99.90
17948;DHT22;9099;47.958;11.366;2023-04-03T02:40:17;2.70;99.90
17948;DHT22;9099;47.958;11.366;2023-04-03T02:42:45;2.70;99.90
17948;DHT22;9099;47.958;11.366;2023-04-03T02:45:12;2.80;99.90
17948;DHT22;9099;47.958;11.366;2023-04-03T02:47:39;2.90;99.90
17948;DHT22;9099;47.958;11.366;2023-04-03T02:50:06;2.90;99.90
17948;DHT22;9099;47.958;11.366;2023-04-03T02:52:34;3.00;99.90
17948;DHT22;9099;47.958;11.366;2023-04-03T02:55:01;3.00;99.90
17948;DHT22;9099;47.958;11.366;2023-04-03T02:57:29;3.00;99.90
17948;DHT22;9099;47.958;11.366;2023-04-03T02:59:57;3.00;99.90
17948;DHT22;9099;47.958;11.366;2023-04-03T03:02:24;2.90;99.90
17948;DHT22;9099;47.958;11.366;2023-04-03T03:04:50;2.90;99.90
17948;DHT22;9099;47.958;11.366;2023-04-03T03:07:17;3.00;99.90
17948;DHT22;9099;47.958;11.366;2023-04-03T03:09:44;3.00;99.90
17948;DHT22;9099;47.958;11.366;2023-04-03T03:12:11;2.80;99.90
17948;DHT22;9099;47.958;11.366;2023-04-03T03:14:38;2.90;99.90
17948;DHT22;9099;47.958;11.366;2023-04-03T03:17:07;2.80;99.90
17948;DHT22;9099;47.958;11.366;2023-04-03T03:19:34;2.80;99.90
17948;DHT22;9099;47.958;11.366;2023-04-03T03:22:01;2.70;99.90
17948;DHT22;9099;47.958;11.366;2023-04-03T03:24:27;2.70;99.90
17948;DHT22;9099;47.958;11.366;2023-04-03T03:26:54;2.70;99.90
17948;DHT22;9099;47.958;11.366;2023-04-03T03:29:21;2.70;99.90
17948;DHT22;9099;47.958;11.366;2023-04-03T03:31:48;2.70;99.90
17948;DHT22;9099;47.958;11.366;2023-04-03T03:34:17;2.70;99.90
17948;DHT22;9099;47.958;11.366;2023-04-03T03:36:44;2.70;99.90
17948;DHT22;9099;47.958;11.366;2023-04-03T03:39:12;2.60;99.90
17948;DHT22;9099;47.958;11.366;2023-04-03T03:41:39;2.70;99.90
17948;DHT22;9099;47.958;11.366;2023-04-03T03:44:05;2.70;99.90
17948;DHT22;9099;47.958;11.366;2023-04-03T03:46:32;2.70;99.90
17948;DHT22;9099;47.958;11.366;2023-04-03T03:48:59;2.60;99.90
17948;DHT22;9099;47.958;11.366;2023-04-03T03:51:28;2.70;99.90
17948;DHT22;9099;47.958;11.366;2023-04-03T03:53:55;2.60;99.90
17948;DHT22;9099;47.958;11.366;2023-04-03T03:56:21;2.70;99.90
17948;DHT22;9099;47.958;11.366;2023-04-03T03:58:48;2.80;99.90
17948;DHT22;9099;47.958;11.366;2023-04-03T04:01:15;2.80;99.90
17948;DHT22;9099;47.958;11.366;2023-04-03T04:03:43;2.80;99.90
17948;DHT22;9099;47.958;11.366;2023-04-03T04:06:10;2.90;99.90
17948;DHT22;9099;47.958;11.366;2023-04-03T04:08:38;3.00;99.90
17948;DHT22;9099;47.958;11.366;2023-04-03T04:11:05;3.10;99.90
17948;DHT22;9099;47.958;11.366;2023-04-03T04:13:32;3.10;99.90
17948;DHT22;9099;47.958;11.366;2023-04-03T04:15:59;3.20;99.90
17948;DHT22;9099;47.958;11.366;2023-04-03T04:18:26;3.30;99.90
17948;DHT22;9099;47.958;11.366;2023-04-03T04:20:53;3.30;99.90
17948;DHT22;9099;47.958;11.366;2023-04-03T04:23:20;3.30;99.90
17948;DHT22;9099;47.958;11.366;2023-04-03T04:25:48;3.30;99.90
17948;DHT22;9099;47.958;11.366;2023-04-03T04:28:15;3.30;99.90
17948;DHT22;9099;47.958;11.366;2023-04-03T04:30:42;3.40;99.90
17948;DHT22;9099;47.958;11.366;2023-04-03T04:33:09;3.50;99.90
17948;DHT22;9099;47.958;11.366;2023-04-03T04:35:36;3.50;99.90
17948;DHT22;9099;47.958;11.366;2023-04-03T04:38:03;3.50;99.90
17948;DHT22;9099;47.958;11.366;2023-04-03T04:40:30;3.40;99.90
17948;DHT22;9099;47.958;11.366;2023-04-03T04:42:58;3.40;99.90
17948;DHT22;9099;47.958;11.366;2023-04-03T04:45:25;3.50;99.90
17948;DHT22;9099;47.958;11.366;2023-04-03T04:47:54;3.50;99.90
17948;DHT22;9099;47.958;11.366;2023-04-03T04:50:21;3.60;99.90
17948;DHT22;9099;47.958;11.366;2023-04-03T04:52:48;3.60;99.90
17948;DHT22;9099;47.958;11.366;2023-04-03T04:55:15;3.60;99.90
17948;DHT22;9099;47.958;11.366;2023-04-03T04:57:42;3.60;99.90
17948;DHT22;9099;47.958;11.366;2023-04-03T05:00:11;3.70;99.90
17948;DHT22;9099;47.958;11.366;2023-04-03T05:02:38;3.70;99.90
17948;DHT22;9099;47.958;11.366;2023-04-03T05:05:06;3.60;99.90
17948;DHT22;9099;47.958;11.366;2023-04-03T05:07:33;3.60;99.90
17948;DHT22;9099;47.958;11.366;2023-04-03T05:10:01;3.50;99.90
17948;DHT22;9099;47.958;11.366;2023-04-03T05:12:28;3.60;99.90
17948;DHT22;9099;47.958;11.366;2023-04-03T05:14:54;3.60;99.90
17948;DHT22;9099;47.958;11.366;2023-04-03T05:17:23;3.70;99.90
17948;DHT22;9099;47.958;11.366;2023-04-03T05:19:49;3.70;99.90
17948;DHT22;9099;47.958;11.366;2023-04-03T05:22:16;3.70;99.90
17948;DHT22;9099;47.958;11.366;2023-04-03T05:24:43;3.60;99.90
17948;DHT22;9099;47.958;11.366;2023-04-03T05:27:10;3.70;99.90
17948;DHT22;9099;47.958;11.366;2023-04-03T05:29:37;3.70;99.90
17948;DHT22;9099;47.958;11.366;2023-04-03T05:32:04;3.70;99.90
17948;DHT22;9099;47.958;11.366;2023-04-03T05:34:32;3.70;99.90
17948;DHT22;9099;47.958;11.366;2023-04-03T05:36:59;3.70;99.90
17948;DHT22;9099;47.958;11.366;2023-04-03T05:39:26;3.70;99.90
17948;DHT22;9099;47.958;11.366;2023-04-03T05:41:53;3.70;99.90
17948;DHT22;9099;47.958;11.366;2023-04-03T05:44:20;3.70;99.90
17948;DHT22;9099;47.958;11.366;2023-04-03T05:46:47;3.70;99.90
17948;DHT22;9099;47.958;11.366;2023-04-03T05:49:14;3.70;99.90
17948;DHT22;9099;47.958;11.366;2023-04-03T05:51:42;3.60;99.90
17948;DHT22;9099;47.958;11.366;2023-04-03T05:54:13;3.70;99.90
17948;DHT22;9099;47.958;11.366;2023-04-03T05:56:42;3.70;99.90
17948;DHT22;9099;47.958;11.366;2023-04-03T05:59:10;3.70;99.90
17948;DHT22;9099;47.958;11.366;2023-04-03T06:01:37;3.70;99.90
17948;DHT22;9099;47.958;11.366;2023-04-03T06:04:04;3.80;99.90
17948;DHT22;9099;47.958;11.366;2023-04-03T06:06:44;3.80;99.90
17948;DHT22;9099;47.958;11.366;2023-04-03T06:09:12;3.80;99.90
17948;DHT22;9099;47.958;11.366;2023-04-03T06:11:39;3.80;99.90
17948;DHT22;9099;47.958;11.366;2023-04-03T06:14:06;3.90;99.90
17948;DHT22;9099;47.958;11.366;2023-04-03T06:16:33;3.90;99.90
17948;DHT22;9099;47.958;11.366;2023-04-03T06:19:00;3.90;99.90
17948;DHT22;9099;47.958;11.366;2023-04-03T06:21:27;3.90;99.90
17948;DHT22;9099;47.958;11.366;2023-04-03T06:23:56;4.00;99.90
17948;DHT22;9099;47.958;11.366;2023-04-03T06:26:23;4.10;99.90
17948;DHT22;9099;47.958;11.366;2023-04-03T06:28:49;4.10;99.90
17948;DHT22;9099;47.958;11.366;2023-04-03T06:31:16;4.10;99.90
17948;DHT22;9099;47.958;11.366;2023-04-03T06:33:43;4.00;99.90
17948;DHT22;9099;47.958;11.366;2023-04-03T06:36:11;4.00;99.90
17948;DHT22;9099;47.958;11.366;2023-04-03T06:38:38;3.90;99.90
17948;DHT22;9099;47.958;11.366;2023-04-03T06:41:07;3.90;99.90
17948;DHT22;9099;47.958;11.366;2023-04-03T06:43:34;3.80;99.90
17948;DHT22;9099;47.958;11.366;2023-04-03T06:46:00;3.80;99.90
17948;DHT22;9099;47.958;11.366;2023-04-03T06:48:27;3.80;99.90
17948;DHT22;9099;47.958;11.366;2023-04-03T06:50:54;3.90;99.90
17948;DHT22;9099;47.958;11.366;2023-04-03T06:53:21;3.90;99.90
17948;DHT22;9099;47.958;11.366;2023-04-03T06:55:48;3.80;99.90
17948;DHT22;9099;47.958;11.366;2023-04-03T06:58:16;3.70;99.90
17948;DHT22;9099;47.958;11.366;2023-04-03T07:00:43;3.60;99.90
17948;DHT22;9099;47.958;11.366;2023-04-03T07:03:12;3.60;99.90
17948;DHT22;9099;47.958;11.366;2023-04-03T07:05:40;3.80;99.90
17948;DHT22;9099;47.958;11.366;2023-04-03T07:08:09;3.90;99.90
17948;DHT22;9099;47.958;11.366;2023-04-03T07:10:37;3.90;99.90
17948;DHT22;9099;47.958;11.366;2023-04-03T07:13:04;4.00;99.90
17948;DHT22;9099;47.958;11.366;2023-04-03T07:15:33;4.00;99.90
17948;DHT22;9099;47.958;11.366;2023-04-03T07:18:01;4.00;99.90
17948;DHT22;9099;47.958;11.366;2023-04-03T07:20:28;3.90;99.90
17948;DHT22;9099;47.958;11.366;2023-04-03T07:22:55;4.00;99.90
17948;DHT22;9099;47.958;11.366;2023-04-03T07:25:22;4.10;99.90
17948;DHT22;9099;47.958;11.366;2023-04-03T07:27:49;4.20;99.90
17948;DHT22;9099;47.958;11.366;2023-04-03T07:30:16;4.30;99.90
17948;DHT22;9099;47.958;11.366;2023-04-03T07:32:44;4.10;99.90
17948;DHT22;9099;47.958;11.366;2023-04-03T07:35:11;4.00;99.90
17948;DHT22;9099;47.958;11.366;2023-04-03T07:37:39;4.10;99.90
17948;DHT22;9099;47.958;11.366;2023-04-03T07:40:07;4.30;99.90
17948;DHT22;9099;47.958;11.366;2023-04-03T07:42:34;4.40;99.90
17948;DHT22;9099;47.958;11.366;2023-04-03T07:45:02;4.50;99.90
17948;DHT22;9099;47.958;11.366;2023-04-03T07:47:29;4.70;99.90
17948;DHT22;9099;47.958;11.366;2023-04-03T07:49:58;4.80;99.90
17948;DHT22;9099;47.958;11.366;2023-04-03T07:52:25;4.70;99.90
17948;DHT22;9099;47.958;11.366;2023-04-03T07:54:51;4.60;99.90
17948;DHT22;9099;47.958;11.366;2023-04-03T07:57:18;4.50;99.90
17948;DHT22;9099;47.958;11.366;2023-04-03T07:59:45;4.60;99.90
17948;DHT22;9099;47.958;11.366;2023-04-03T08:02:12;4.60;99.90
17948;DHT22;9099;47.958;11.366;2023-04-03T08:04:39;4.60;99.90
17948;DHT22;9099;47.958;11.366;2023-04-03T08:07:07;4.70;99.90
17948;DHT22;9099;47.958;11.366;2023-04-03T08:09:34;4.80;99.90
17948;DHT22;9099;47.958;11.366;2023-04-03T08:12:01;4.80;99.90
17948;DHT22;9099;47.958;11.366;2023-04-03T08:14:30;5.00;99.90
17948;DHT22;9099;47.958;11.366;2023-04-03T08:16:57;5.10;99.90
17948;DHT22;9099;47.958;11.366;2023-04-03T08:19:24;5.00;99.90
17948;DHT22;9099;47.958;11.366;2023-04-03T08:21:51;5.00;99.90
17948;DHT22;9099;47.958;11.366;2023-04-03T08:24:19;5.00;99.90
17948;DHT22;9099;47.958;11.366;2023-04-03T08:26:46;5.00;99.90
17948;DHT22;9099;47.958;11.366;2023-04-03T08:29:12;5.10;99.90
17948;DHT22;9099;47.958;11.366;2023-04-03T08:31:39;5.40;99.90
17948;DHT22;9099;47.958;11.366;2023-04-03T08:34:06;5.50;99.90
17948;DHT22;9099;47.958;11.366;2023-04-03T08:36:34;5.80;99.90
17948;DHT22;9099;47.958;11.366;2023-04-03T08:39:01;6.10;99.90
17948;DHT22;9099;47.958;11.366;2023-04-03T08:41:34;6.10;99.90
17948;DHT22;9099;47.958;11.366;2023-04-03T08:44:09;6.20;99.90
17948;DHT22;9099;47.958;11.366;2023-04-03T08:46:46;6.30;99.90
17948;DHT22;9099;47.958;11.366;2023-04-03T08:49:21;6.40;99.90
17948;DHT22;9099;47.958;11.366;2023-04-03T08:51:50;6.30;99.90
17948;DHT22;9099;47.958;11.366;2023-04-03T08:54:25;6.50;99.90
17948;DHT22;9099;47.958;11.366;2023-04-03T08:56:55;6.50;99.90
17948;DHT22;9099;47.958;11.366;2023-04-03T08:59:27;6.50;99.90
17948;DHT22;9099;47.958;11.366;2023-04-03T09:01:54;6.20;99.90
17948;DHT22;9099;47.958;11.366;2023-04-03T09:04:22;6.20;99.90
17948;DHT22;9099;47.958;11.366;2023-04-03T09:06:54;6.40;99.90
17948;DHT22;9099;47.958;11.366;2023-04-03T09:09:30;6.50;99.90
17948;DHT22;9099;47.958;11.366;2023-04-03T09:12:04;6.50;99.90
17948;DHT22;9099;47.958;11.366;2023-04-03T09:14:39;6.60;99.90
17948;DHT22;9099;47.958;11.366;2023-04-03T09:17:14;6.70;99.90
17948;DHT22;9099;47.958;11.366;2023-04-03T09:19:51;6.50;99.90
17948;DHT22;9099;47.958;11.366;2023-04-03T09:22:24;6.50;99.90
17948;DHT22;9099;47.958;11.366;2023-04-03T09:24:57;6.40;99.90
17948;DHT22;9099;47.958;11.366;2023-04-03T09:27:27;5.90;99.90
17948;DHT22;9099;47.958;11.366;2023-04-03T09:29:55;5.70;99.90
17948;DHT22;9099;47.958;11.366;2023-04-03T09:32:28;5.90;99.90
17948;DHT22;9099;47.958;11.366;2023-04-03T09:34:58;6.00;99.90
17948;DHT22;9099;47.958;11.366;2023-04-03T09:37:37;6.40;99.90
17948;DHT22;9099;47.958;11.366;2023-04-03T09:40:12;6.60;99.90
17948;DHT22;9099;47.958;11.366;2023-04-03T09:42:56;6.70;99.90
17948;DHT22;9099;47.958;11.366;2023-04-03T09:45:25;6.90;99.90
17948;DHT22;9099;47.958;11.366;2023-04-03T09:48:06;7.00;99.90
17948;DHT22;9099;47.958;11.366;2023-04-03T09:50:34;6.80;99.90
17948;DHT22;9099;47.958;11.366;2023-04-03T09:53:06;6.80;99.90
17948;DHT22;9099;47.958;11.366;2023-04-03T09:55:42;6.80;99.90
17948;DHT22;9099;47.958;11.366;2023-04-03T09:58:24;6.90;99.90
17948;DHT22;9099;47.958;11.366;2023-04-03T10:00:55;7.10;99.90
17948;DHT22;9099;47.958;11.366;2023-04-03T10:03:25;7.20;99.90
17948;DHT22;9099;47.958;11.366;2023-04-03T10:05:52;7.40;99.90
17948;DHT22;9099;47.958;11.366;2023-04-03T10:08:23;7.70;99.90
17948;DHT22;9099;47.958;11.366;2023-04-03T10:11:10;7.90;99.90
17948;DHT22;9099;47.958;11.366;2023-04-03T10:13:51;8.10;99.90
17948;DHT22;9099;47.958;11.366;2023-04-03T10:16:21;8.30;99.90
17948;DHT22;9099;47.958;11.366;2023-04-03T10:18:57;8.50;99.90
17948;DHT22;9099;47.958;11.366;2023-04-03T10:21:35;8.70;99.90
17948;DHT22;9099;47.958;11.366;2023-04-03T10:24:10;8.80;99.90
17948;DHT22;9099;47.958;11.366;2023-04-03T10:26:45;8.80;99.90
17948;DHT22;9099;47.958;11.366;2023-04-03T10:29:26;8.80;99.90
17948;DHT22;9099;47.958;11.366;2023-04-03T10:32:01;9.00;99.90
17948;DHT22;9099;47.958;11.366;2023-04-03T10:34:33;8.80;99.90
17948;DHT22;9099;47.958;11.366;2023-04-03T10:37:10;8.70;99.90
17948;DHT22;9099;47.958;11.366;2023-04-03T10:39:45;9.30;99.90
17948;DHT22;9099;47.958;11.366;2023-04-03T10:42:22;8.90;99.90
17948;DHT22;9099;47.958;11.366;2023-04-03T10:45:01;9.10;99.90
17948;DHT22;9099;47.958;11.366;2023-04-03T10:47:34;9.20;99.90
17948;DHT22;9099;47.958;11.366;2023-04-03T10:50:23;9.20;99.90
17948;DHT22;9099;47.958;11.366;2023-04-03T10:52:57;9.10;99.90
17948;DHT22;9099;47.958;11.366;2023-04-03T10:55:34;9.10;99.90
17948;DHT22;9099;47.958;11.366;2023-04-03T10:58:04;9.00;99.90
17948;DHT22;9099;47.958;11.366;2023-04-03T11:00:36;8.70;99.90
17948;DHT22;9099;47.958;11.366;2023-04-03T11:03:08;8.70;99.90
17948;DHT22;9099;47.958;11.366;2023-04-03T11:05:42;8.60;99.90
17948;DHT22;9099;47.958;11.366;2023-04-03T11:08:17;8.70;99.90
17948;DHT22;9099;47.958;11.366;2023-04-03T11:10:50;8.30;99.90
17948;DHT22;9099;47.958;11.366;2023-04-03T11:13:21;7.90;99.90
17948;DHT22;9099;47.958;11.366;2023-04-03T11:15:53;7.80;99.90
17948;DHT22;9099;47.958;11.366;2023-04-03T11:18:24;7.80;99.90
17948;DHT22;9099;47.958;11.366;2023-04-03T11:20:59;7.60;99.90
17948;DHT22;9099;47.958;11.366;2023-04-03T11:23:30;7.50;99.90
17948;DHT22;9099;47.958;11.366;2023-04-03T11:26:06;7.60;99.90
17948;DHT22;9099;47.958;11.366;2023-04-03T11:28:34;7.70;99.90
17948;DHT22;9099;47.958;11.366;2023-04-03T11:31:12;7.40;99.90
17948;DHT22;9099;47.958;11.366;2023-04-03T11:33:45;7.50;99.90
17948;DHT22;9099;47.958;11.366;2023-04-03T11:36:21;7.60;99.90
17948;DHT22;9099;47.958;11.366;2023-04-03T11:38:51;7.50;99.90
17948;DHT22;9099;47.958;11.366;2023-04-03T11:41:26;7.40;99.90
17948;DHT22;9099;47.958;11.366;2023-04-03T11:43:58;7.40;99.90
17948;DHT22;9099;47.958;11.366;2023-04-03T11:46:52;7.50;99.90
17948;DHT22;9099;47.958;11.366;2023-04-03T11:49:51;7.40;99.90
17948;DHT22;9099;47.958;11.366;2023-04-03T11:55:52;6.70;99.90
17948;DHT22;9099;47.958;11.366;2023-04-03T11:58:23;6.40;99.90
17948;DHT22;9099;47.958;11.366;2023-04-03T12:01:02;6.30;99.90
17948;DHT22;9099;47.958;11.366;2023-04-03T12:04:06;6.10;99.90
17948;DHT22;9099;47.958;11.366;2023-04-03T12:10:01;5.70;99.90
17948;DHT22;9099;47.958;11.366;2023-04-03T12:12:35;5.30;99.90
17948;DHT22;9099;47.958;11.366;2023-04-03T12:15:20;4.80;99.90
17948;DHT22;9099;47.958;11.366;2023-04-03T12:17:48;4.70;99.90
17948;DHT22;9099;47.958;11.366;2023-04-03T12:20:53;4.60;99.90
17948;DHT22;9099;47.958;11.366;2023-04-03T12:23:26;4.50;99.90
17948;DHT22;9099;47.958;11.366;2023-04-03T12:26:01;4.20;99.90
17948;DHT22;9099;47.958;11.366;2023-04-03T12:28:29;4.20;99.90
17948;DHT22;9099;47.958;11.366;2023-04-03T12:30:56;4.30;99.90
17948;DHT22;9099;47.958;11.366;2023-04-03T12:33:31;4.40;99.90
17948;DHT22;9099;47.958;11.366;2023-04-03T12:36:08;4.50;99.90
17948;DHT22;9099;47.958;11.366;2023-04-03T12:39:02;4.50;99.90
17948;DHT22;9099;47.958;11.366;2023-04-03T12:41:38;4.60;99.90
17948;DHT22;9099;47.958;11.366;2023-04-03T12:44:27;4.60;99.90
17948;DHT22;9099;47.958;11.366;2023-04-03T12:47:00;4.80;99.90
17948;DHT22;9099;47.958;11.366;2023-04-03T12:49:35;5.00;99.90
17948;DHT22;9099;47.958;11.366;2023-04-03T12:52:18;5.10;99.90
17948;DHT22;9099;47.958;11.366;2023-04-03T12:54:46;5.40;99.90
17948;DHT22;9099;47.958;11.366;2023-04-03T12:57:18;5.50;99.90
17948;DHT22;9099;47.958;11.366;2023-04-03T12:59:45;5.80;99.90
17948;DHT22;9099;47.958;11.366;2023-04-03T13:02:21;6.10;99.90
17948;DHT22;9099;47.958;11.366;2023-04-03T13:04:50;6.10;99.90
17948;DHT22;9099;47.958;11.366;2023-04-03T13:07:23;6.20;99.90
17948;DHT22;9099;47.958;11.366;2023-04-03T13:10:00;6.20;99.90
17948;DHT22;9099;47.958;11.366;2023-04-03T13:12:28;5.90;99.90
17948;DHT22;9099;47.958;11.366;2023-04-03T13:14:58;5.80;99.90
17948;DHT22;9099;47.958;11.366;2023-04-03T13:17:26;5.70;99.90
17948;DHT22;9099;47.958;11.366;2023-04-03T13:19:54;5.90;99.90
17948;DHT22;9099;47.958;11.366;2023-04-03T13:22:31;6.20;99.90
17948;DHT22;9099;47.958;11.366;2023-04-03T13:25:07;6.50;99.90
17948;DHT22;9099;47.958;11.366;2023-04-03T13:27:36;6.70;99.90
17948;DHT22;9099;47.958;11.366;2023-04-03T13:30:04;6.60;99.90
17948;DHT22;9099;47.958;11.366;2023-04-03T13:32:32;6.50;99.90
17948;DHT22;9099;47.958;11.366;2023-04-03T13:34:59;6.40;99.90
17948;DHT22;9099;47.958;11.366;2023-04-03T13:37:30;6.30;99.90
17948;DHT22;9099;47.958;11.366;2023-04-03T13:40:00;6.60;99.90
17948;DHT22;9099;47.958;11.366;2023-04-03T13:42:28;7.10;99.90
17948;DHT22;9099;47.958;11.366;2023-04-03T13:45:23;7.60;99.90
17948;DHT22;9099;47.958;11.366;2023-04-03T13:48:06;8.10;99.90
17948;DHT22;9099;47.958;11.366;2023-04-03T13:50:41;8.30;99.90
17948;DHT22;9099;47.958;11.366;2023-04-03T13:53:17;8.60;99.90
17948;DHT22;9099;47.958;11.366;2023-04-03T13:55:55;9.10;99.90
17948;DHT22;9099;47.958;11.366;2023-04-03T13:58:24;9.60;99.90
17948;DHT22;9099;47.958;11.366;2023-04-03T14:00:53;9.80;99.90
17948;DHT22;9099;47.958;11.366;2023-04-03T14:03:25;9.90;99.90
17948;DHT22;9099;47.958;11.366;2023-04-03T14:05:53;9.70;99.90
17948;DHT22;9099;47.958;11.366;2023-04-03T14:08:22;9.30;99.90
17948;DHT22;9099;47.958;11.366;2023-04-03T14:10:49;9.30;99.90
17948;DHT22;9099;47.958;11.366;2023-04-03T14:13:18;9.20;99.90
17948;DHT22;9099;47.958;11.366;2023-04-03T14:15:47;8.90;99.90
17948;DHT22;9099;47.958;11.366;2023-04-03T14:18:16;8.70;99.90
17948;DHT22;9099;47.958;11.366;2023-04-03T14:20:44;8.60;99.90
17948;DHT22;9099;47.958;11.366;2023-04-03T14:23:11;9.30;99.90
17948;DHT22;9099;47.958;11.366;2023-04-03T14:25:40;9.60;99.90
17948;DHT22;9099;47.958;11.366;2023-04-03T14:28:16;9.60;99.90
17948;DHT22;9099;47.958;11.366;2023-04-03T14:30:44;9.40;99.90
17948;DHT22;9099;47.958;11.366;2023-04-03T14:33:14;9.70;99.90
17948;DHT22;9099;47.958;11.366;2023-04-03T14:35:41;9.90;99.90
17948;DHT22;9099;47.958;11.366;2023-04-03T14:38:21;9.80;99.90
17948;DHT22;9099;47.958;11.366;2023-04-03T14:40:49;9.60;99.90
17948;DHT22;9099;47.958;11.366;2023-04-03T14:43:17;9.90;99.90
17948;DHT22;9099;47.958;11.366;2023-04-03T14:45:44;9.70;99.90
17948;DHT22;9099;47.958;11.366;2023-04-03T14:48:17;9.50;99.90
17948;DHT22;9099;47.958;11.366;2023-04-03T14:50:45;9.40;99.90
17948;DHT22;9099;47.958;11.366;2023-04-03T14:53:12;9.40;99.90
17948;DHT22;9099;47.958;11.366;2023-04-03T14:55:41;9.00;99.90
17948;DHT22;9099;47.958;11.366;2023-04-03T14:58:13;9.00;99.90
17948;DHT22;9099;47.958;11.366;2023-04-03T15:00:40;8.90;99.90
17948;DHT22;9099;47.958;11.366;2023-04-03T15:03:12;8.80;99.90
17948;DHT22;9099;47.958;11.366;2023-04-03T15:05:39;8.70;99.90
17948;DHT22;9099;47.958;11.366;2023-04-03T15:08:16;8.50;99.90
17948;DHT22;9099;47.958;11.366;2023-04-03T15:10:43;8.20;99.90
17948;DHT22;9099;47.958;11.366;2023-04-03T15:13:12;7.90;99.90
17948;DHT22;9099;47.958;11.366;2023-04-03T15:15:39;7.80;99.90
17948;DHT22;9099;47.958;11.366;2023-04-03T15:18:06;7.70;99.90
17948;DHT22;9099;47.958;11.366;2023-04-03T15:20:33;7.60;99.90
17948;DHT22;9099;47.958;11.366;2023-04-03T15:23:01;7.40;99.90
17948;DHT22;9099;47.958;11.366;2023-04-03T15:25:28;7.20;99.90
17948;DHT22;9099;47.958;11.366;2023-04-03T15:27:56;7.10;99.90
17948;DHT22;9099;47.958;11.366;2023-04-03T15:30:25;6.80;99.90
17948;DHT22;9099;47.958;11.366;2023-04-03T15:32:51;6.50;99.90
17948;DHT22;9099;47.958;11.366;2023-04-03T15:35:19;6.30;99.90
17948;DHT22;9099;47.958;11.366;2023-04-03T15:37:46;6.00;99.90
17948;DHT22;9099;47.958;11.366;2023-04-03T15:40:14;5.90;99.90
17948;DHT22;9099;47.958;11.366;2023-04-03T15:42:41;5.90;99.90
17948;DHT22;9099;47.958;11.366;2023-04-03T15:45:08;5.80;99.90
17948;DHT22;9099;47.958;11.366;2023-04-03T15:47:37;5.80;99.90
17948;DHT22;9099;47.958;11.366;2023-04-03T15:50:05;5.80;99.90
17948;DHT22;9099;47.958;11.366;2023-04-03T15:52:33;5.80;99.90
17948;DHT22;9099;47.958;11.366;2023-04-03T15:55:00;5.80;99.90
17948;DHT22;9099;47.958;11.366;2023-04-03T15:57:27;5.70;99.90
17948;DHT22;9099;47.958;11.366;2023-04-03T15:59:53;5.70;99.90
17948;DHT22;9099;47.958;11.366;2023-04-03T16:02:20;5.70;99.90
17948;DHT22;9099;47.958;11.366;2023-04-03T16:04:49;5.70;99.90
17948;DHT22;9099;47.958;11.366;2023-04-03T16:07:16;5.60;99.90
17948;DHT22;9099;47.958;11.366;2023-04-03T16:09:43;5.60;99.90